Lawn Ridge, Illinois
Current Conditions -  °F | °C
As of 12:35 PM on Saturday 25 Oct 2014 (Local Time) from KC75 Reporting Station
Clear Clear  
Wind Chill: 69°   Ceiling: Unl
Heat Index: 69°   Visibility: 10mi
Dew Point: 48°   Wind: 6mph
Humidity: 48%   Direction: 300°WNW
Pressure: 30"   Gusts: NA
Location:  40.9686°N, 89.597°W
Report Text: KC75 251735Z AUTO 30005KT 10SM CLR 21/09 A3000 RMK AO2 T02050091
Loading
Personal Weather Stations






























Interactive Weather Map New forecast layout! Learn more

10-Day Weather Forecast

Advertisements
Track Severe Weather on mobile